»·PEaware :: N16RD KVCV-KCMA

N16RD :: KVCV-KCMA

FLIGHT INFORMATION

Flight Status: Arrived
Operator: Privately registered:
United States
More flights under this callsign
Pilot: Brett B. (12105)
Aircraft: CESSNA 182 SKYLANE
(C182)
More flights by this aircraft type
Origin: KVCV Socal Logistics
United States
Destination: KCMA Camarillo
United States
More flights between these airports :: More routes between these airports
Route: +PMD V386 FIM
File this flight plan on PilotEdge
Remarks:
Altitude:
(Current/Filed)
8,000ft
Speed:
(Current/Filed)
140kts
Departed: 29-Jun-18 03:45 PM
Arrived: 29-Jun-18 04:31 PM
Distance/Time
Traveled:
88nm/0:46
Distance/Time
To Go:
Arrived

Flight Plot

Page will automatically refresh every two minutes.

Flight plan parsing failed; only flown route is shown


Map Options




Map Legend


Flown Route
Filed Route
Departure Airport
Arrival Airport
Navaid (VOR, NDB)
Fix

Horizontal Profiles

Position Reports

Time Latitude Longitude Heading Altitude Ground
Speed
29-Jun-18 14:46 34.583738 -117.381084 222 2854ft 0kts
29-Jun-18 14:47 34.583738 -117.381084 222 2854ft 0kts
29-Jun-18 14:48 34.583738 -117.381084 222 2854ft 0kts
29-Jun-18 14:49 34.583738 -117.381084 222 2854ft 0kts
29-Jun-18 14:50 34.583738 -117.381084 222 2854ft 0kts
29-Jun-18 14:52 34.583738 -117.381084 222 2854ft 0kts
29-Jun-18 14:53 34.583738 -117.381084 222 2854ft 0kts
29-Jun-18 14:54 34.583738 -117.381084 222 2854ft 0kts
29-Jun-18 14:55 34.583738 -117.381084 222 2854ft 0kts
29-Jun-18 14:56 34.583738 -117.381084 222 2854ft 0kts
29-Jun-18 14:56 34.583738 -117.381084 222 2854ft 0kts
29-Jun-18 14:58 34.583738 -117.381084 222 2854ft 0kts
29-Jun-18 14:59 34.583738 -117.381084 222 2854ft 0kts
29-Jun-18 15:00 34.583738 -117.381084 222 2854ft 0kts
29-Jun-18 15:01 34.583738 -117.381084 222 2854ft 0kts
29-Jun-18 15:01 34.583738 -117.381084 222 2854ft 0kts
29-Jun-18 15:02 34.583738 -117.381084 222 2854ft 0kts
29-Jun-18 15:03 34.583738 -117.381084 222 2854ft 0kts
29-Jun-18 15:04 34.583738 -117.381084 222 2854ft 0kts
29-Jun-18 15:05 34.583738 -117.381084 222 2854ft 0kts
29-Jun-18 15:07 34.583738 -117.381084 222 2854ft 0kts
29-Jun-18 15:07 34.583738 -117.381084 222 2854ft 0kts
29-Jun-18 15:08 34.583738 -117.381084 222 2854ft 0kts
29-Jun-18 15:09 34.583738 -117.381084 222 2854ft 0kts
29-Jun-18 15:10 34.583738 -117.381084 222 2854ft 0kts
29-Jun-18 15:11 34.583738 -117.381084 222 2854ft 0kts
29-Jun-18 15:12 34.583738 -117.381084 222 2854ft 0kts
29-Jun-18 15:13 34.583738 -117.381084 222 2854ft 0kts
29-Jun-18 15:14 34.583738 -117.381084 222 2854ft 0kts
29-Jun-18 15:15 34.583738 -117.381084 222 2854ft 0kts
29-Jun-18 15:16 34.583738 -117.381084 222 2854ft 0kts
29-Jun-18 15:17 34.583738 -117.381084 222 2854ft 0kts
29-Jun-18 15:18 34.583738 -117.381084 222 2854ft 0kts
29-Jun-18 15:19 34.583738 -117.381084 222 2854ft 0kts
29-Jun-18 15:20 34.583737 -117.381085 222 2854ft 0kts
29-Jun-18 15:21 34.583735 -117.381087 222 2854ft 0kts
29-Jun-18 15:22 34.583734 -117.381088 222 2854ft 0kts
29-Jun-18 15:23 34.583734 -117.381088 222 2854ft 0kts
29-Jun-18 15:24 34.583734 -117.381088 222 2854ft 0kts
29-Jun-18 15:25 34.583734 -117.381088 222 2854ft 0kts
29-Jun-18 15:26 34.583734 -117.381088 222 2854ft 0kts
29-Jun-18 15:27 34.583734 -117.381088 222 2854ft 0kts
29-Jun-18 15:28 34.583734 -117.381088 222 2854ft 0kts
29-Jun-18 15:29 34.583734 -117.381088 222 2854ft 0kts
29-Jun-18 15:30 34.583734 -117.381088 222 2854ft 0kts
29-Jun-18 15:31 34.583734 -117.381088 222 2854ft 0kts
29-Jun-18 15:32 34.583734 -117.381088 222 2854ft 0kts
29-Jun-18 15:33 34.583734 -117.381088 222 2854ft 0kts
29-Jun-18 15:34 34.583734 -117.381088 222 2854ft 0kts
29-Jun-18 15:35 34.583734 -117.381088 222 2854ft 0kts
29-Jun-18 15:36 34.583734 -117.381088 222 2854ft 0kts
29-Jun-18 15:37 34.583734 -117.381088 222 2854ft 0kts
29-Jun-18 15:38 34.584621 -117.381791 321 2854ft 14kts
29-Jun-18 15:39 34.588546 -117.378194 43 2854ft 21kts
29-Jun-18 15:40 34.593060 -117.372980 69 2854ft 11kts
29-Jun-18 15:41 34.592581 -117.370416 61 2854ft 13kts
29-Jun-18 15:42 34.595823 -117.367373 9 2854ft 34kts
29-Jun-18 15:43 34.599566 -117.366594 4 2854ft 0kts
29-Jun-18 15:44 34.600324 -117.366739 236 2854ft 0kts
29-Jun-18 15:45 34.589244 -117.380110 223 2902ft 112kts
29-Jun-18 15:46 34.572121 -117.410216 263 3799ft 109kts
29-Jun-18 15:47 34.570153 -117.445821 263 4774ft 106kts
29-Jun-18 15:48 34.568279 -117.480770 263 5737ft 99kts
29-Jun-18 15:49 34.567191 -117.513374 265 6614ft 94kts
29-Jun-18 15:50 34.566469 -117.545761 278 7427ft 96kts
29-Jun-18 15:51 34.568831 -117.579497 278 8026ft 114kts
29-Jun-18 15:52 34.572359 -117.624628 278 8007ft 145kts
29-Jun-18 15:53 34.576457 -117.674127 278 7981ft 149kts
29-Jun-18 15:54 34.580709 -117.724371 278 7971ft 149kts
29-Jun-18 15:55 34.585127 -117.776119 278 7945ft 165kts
29-Jun-18 15:56 34.589739 -117.827686 278 7972ft 149kts
29-Jun-18 15:57 34.594426 -117.877502 281 7976ft 147kts
29-Jun-18 15:58 34.602606 -117.926338 283 7959ft 147kts
29-Jun-18 15:59 34.610968 -117.975062 283 7954ft 144kts
29-Jun-18 16:00 34.619104 -118.021968 283 7959ft 140kts
29-Jun-18 16:01 34.618626 -118.067380 244 7971ft 143kts
29-Jun-18 16:02 34.598788 -118.109705 245 7964ft 145kts
29-Jun-18 16:03 34.581300 -118.154655 248 7960ft 149kts
29-Jun-18 16:04 34.563268 -118.200617 248 7961ft 151kts
29-Jun-18 16:05 34.547974 -118.247771 258 7962ft 149kts
29-Jun-18 16:06 34.537121 -118.296380 258 7963ft 148kts
29-Jun-18 16:07 34.530206 -118.345349 263 7962ft 145kts
29-Jun-18 16:08 34.526549 -118.395001 261 7942ft 150kts
29-Jun-18 16:09 34.517362 -118.444009 252 7994ft 146kts
29-Jun-18 16:10 34.502430 -118.489746 221 7999ft 146kts
29-Jun-18 16:11 34.478653 -118.528885 238 8012ft 146kts
29-Jun-18 16:12 34.457895 -118.571295 238 8017ft 145kts
29-Jun-18 16:13 34.433245 -118.607130 200 7898ft 156kts
29-Jun-18 16:14 34.389015 -118.617206 193 7113ft 165kts
29-Jun-18 16:15 34.343269 -118.627283 193 6321ft 166kts
29-Jun-18 16:16 34.301082 -118.636648 193 5494ft 147kts
29-Jun-18 16:17 34.263896 -118.644924 193 4983ft 141kts
29-Jun-18 16:18 34.225089 -118.658158 204 4484ft 154kts
29-Jun-18 16:19 34.204516 -118.691622 284 4005ft 124kts
29-Jun-18 16:20 34.211682 -118.728595 284 3999ft 105kts
29-Jun-18 16:21 34.218182 -118.762322 284 3998ft 101kts
29-Jun-18 16:22 34.224472 -118.795087 284 4000ft 99kts
29-Jun-18 16:23 34.218969 -118.831993 261 3542ft 126kts
29-Jun-18 16:24 34.217332 -118.870609 269 3377ft 105kts
29-Jun-18 16:25 34.214696 -118.898554 264 3249ft 94kts
29-Jun-18 16:26 34.211953 -118.935078 273 2522ft 119kts
29-Jun-18 16:27 34.214482 -118.975687 268 1727ft 122kts
29-Jun-18 16:28 34.213569 -119.015146 264 1029ft 111kts
29-Jun-18 16:29 34.213445 -119.046558 267 885ft 87kts
29-Jun-18 16:30 34.213690 -119.073498 267 258ft 75kts
29-Jun-18 16:31 34.213726 -119.093207 268 78ft 22kts
29-Jun-18 16:32 34.213057 -119.095540 204 78ft 0kts
29-Jun-18 16:33 34.211043 -119.094262 92 78ft 8kts
29-Jun-18 16:34 34.210964 -119.089519 90 78ft 14kts
29-Jun-18 16:35 34.210565 -119.088744 281 78ft 0kts
29-Jun-18 16:36 34.210565 -119.088744 281 78ft 0kts
29-Jun-18 16:37 34.210565 -119.088744 281 78ft 0kts
29-Jun-18 16:38 34.210565 -119.088744 281 78ft 0kts
29-Jun-18 16:39 34.210565 -119.088744 281 78ft 0kts
29-Jun-18 16:40 34.210565 -119.088744 281 78ft 0kts
29-Jun-18 16:41 34.210565 -119.088744 281 78ft 0kts
29-Jun-18 16:42 34.210565 -119.088744 281 78ft 0kts
29-Jun-18 16:43 34.210565 -119.088744 281 78ft 0kts
29-Jun-18 16:44 34.210565 -119.088744 281 78ft 0kts
29-Jun-18 16:45 34.210565 -119.088744 281 78ft 0kts

Navigation Log

Ident Type
Flight plan parsing failed, navigation log unavailable